createdAt,value
2023-04-22T00:02:55.950Z,9.11
2023-04-22T00:07:59.062Z,9.10
2023-04-22T00:13:00.720Z,9.09
2023-04-22T00:18:02.325Z,9.14
2023-04-22T00:23:05.418Z,9.17
2023-04-22T00:28:07.118Z,9.31
2023-04-22T00:33:08.794Z,9.09
2023-04-22T00:38:11.875Z,9.22
2023-04-22T00:43:14.131Z,9.18
2023-04-22T00:48:15.777Z,9.06
2023-04-22T00:53:18.806Z,9.04
2023-04-22T00:58:21.422Z,9.14
2023-04-22T01:03:23.866Z,9.13
2023-04-22T01:08:28.809Z,9.06
2023-04-22T01:13:30.601Z,9.00
2023-04-22T01:18:33.047Z,9.14
2023-04-22T01:23:36.506Z,9.04
2023-04-22T01:28:38.672Z,9.12
2023-04-22T01:33:40.369Z,9.13
2023-04-22T01:38:43.594Z,9.02
2023-04-22T01:43:45.446Z,9.16
2023-04-22T01:48:47.088Z,9.11
2023-04-22T01:53:50.833Z,9.13
2023-04-22T01:58:52.492Z,9.02
2023-04-22T02:03:54.357Z,9.04
2023-04-22T02:08:57.423Z,9.12
2023-04-22T02:13:59.101Z,9.08
2023-04-22T02:19:00.757Z,9.05
2023-04-22T02:24:04.119Z,9.07
2023-04-22T02:29:05.774Z,9.20
2023-04-22T02:34:07.454Z,9.14
2023-04-22T02:39:10.592Z,8.98
2023-04-22T02:44:12.283Z,9.03
2023-04-22T02:49:13.910Z,9.02
2023-04-22T02:54:17.055Z,9.01
2023-04-22T02:59:18.680Z,9.07
2023-04-22T03:04:20.428Z,8.95
2023-04-22T03:09:23.517Z,9.00
2023-04-22T03:14:25.317Z,9.10
2023-04-22T03:19:27.033Z,9.04
2023-04-22T03:24:30.005Z,8.86
2023-04-22T03:29:31.719Z,8.86
2023-04-22T03:34:34.604Z,8.85
2023-04-22T03:39:39.299Z,8.70
2023-04-22T03:44:41.208Z,8.80
2023-04-22T03:49:42.954Z,8.91
2023-04-22T03:54:45.991Z,8.80
2023-04-22T03:59:47.616Z,8.77
2023-04-22T04:04:49.627Z,8.80
2023-04-22T04:09:52.887Z,8.81
2023-04-22T04:14:54.617Z,8.75
2023-04-22T04:19:56.318Z,8.74
2023-04-22T04:24:59.333Z,8.68
2023-04-22T04:30:00.956Z,8.77
2023-04-22T04:35:02.647Z,8.84
2023-04-22T04:40:07.313Z,8.88
2023-04-22T04:45:09.444Z,8.80
2023-04-22T04:50:11.495Z,8.78
2023-04-22T04:55:14.657Z,8.61
2023-04-22T05:00:16.629Z,8.88
2023-04-22T05:05:18.317Z,8.80
2023-04-22T05:10:21.539Z,8.97
2023-04-22T05:15:23.150Z,9.24
2023-04-22T05:20:24.955Z,9.77
2023-04-22T05:25:27.936Z,10.89
2023-04-22T05:30:29.689Z,12.85
2023-04-22T05:35:31.391Z,13.53
2023-04-22T05:40:34.487Z,14.64
2023-04-22T05:45:36.339Z,15.75
2023-04-22T05:50:37.934Z,16.94
2023-04-22T05:55:41.123Z,17.51
2023-04-22T06:00:42.773Z,16.38
2023-04-22T06:05:44.576Z,18.80
2023-04-22T06:10:47.603Z,20.72
2023-04-22T06:15:51.097Z,23.31
2023-04-22T06:20:52.881Z,24.34
2023-04-22T06:25:56.049Z,23.09
2023-04-22T06:30:59.538Z,24.87
2023-04-22T06:36:05.618Z,23.91
2023-04-22T06:41:11.830Z,20.96
2023-04-22T06:46:13.478Z,24.64
2023-04-22T06:51:15.384Z,27.97
2023-04-22T06:56:18.877Z,28.09
2023-04-22T07:01:20.614Z,28.54
2023-04-22T07:06:22.318Z,30.23
2023-04-22T07:11:25.424Z,29.62
2023-04-22T07:16:27.339Z,30.78
2023-04-22T07:21:29.129Z,31.31
2023-04-22T07:26:32.449Z,33.25
2023-04-22T07:31:35.647Z,32.20
2023-04-22T07:36:37.393Z,32.67
2023-04-22T07:41:40.509Z,33.38
2023-04-22T07:46:42.494Z,32.46
2023-04-22T07:51:44.509Z,30.42
2023-04-22T07:56:47.654Z,32.36
2023-04-22T08:01:49.278Z,30.55
2023-04-22T08:06:50.997Z,27.44
2023-04-22T08:11:54.207Z,25.72
2023-04-22T08:16:55.981Z,25.64
2023-04-22T08:21:57.636Z,25.77
2023-04-22T08:27:00.825Z,27.10
2023-04-22T08:32:03.020Z,27.65
2023-04-22T08:37:04.983Z,26.81
2023-04-22T08:42:08.198Z,24.13
2023-04-22T08:47:11.189Z,22.77
2023-04-22T08:52:16.030Z,21.60
2023-04-22T08:57:19.756Z,21.39
2023-04-22T09:02:23.339Z,21.48
2023-04-22T09:07:27.313Z,22.39
2023-04-22T09:12:30.345Z,22.75
2023-04-22T09:17:33.293Z,21.50
2023-04-22T09:22:39.604Z,21.16
2023-04-22T09:27:42.889Z,21.05
2023-04-22T09:32:52.011Z,21.98
2023-04-22T09:37:53.949Z,21.49
2023-04-22T09:42:58.793Z,21.26
2023-04-22T09:48:02.849Z,20.38
2023-04-22T09:53:07.077Z,19.83
2023-04-22T09:58:12.022Z,20.24
2023-04-22T10:03:13.638Z,19.99
2023-04-22T10:08:16.745Z,19.84
2023-04-22T10:13:20.149Z,21.08
2023-04-22T10:18:24.329Z,21.59
2023-04-22T10:23:26.089Z,21.29
2023-04-22T10:28:29.326Z,21.10
2023-04-22T10:33:38.089Z,20.93
2023-04-22T10:38:41.334Z,20.76
2023-04-22T10:43:46.336Z,20.57
2023-04-22T10:48:48.029Z,20.78
2023-04-22T10:53:49.685Z,20.51
2023-04-22T10:58:52.712Z,20.71
2023-04-22T11:03:54.572Z,20.80
2023-04-22T11:09:09.043Z,19.86
2023-04-22T11:14:12.593Z,20.57
2023-04-22T11:19:14.190Z,20.00
2023-04-22T11:24:18.303Z,19.15
2023-04-22T11:29:21.302Z,19.14
2023-04-22T11:34:24.977Z,19.12
2023-04-22T11:39:35.225Z,19.40
2023-04-22T11:44:38.701Z,19.47
2023-04-22T11:49:40.487Z,19.39
2023-04-22T11:54:42.229Z,18.69
2023-04-22T11:59:57.075Z,18.90
2023-04-22T12:04:59.479Z,18.85
2023-04-22T12:10:01.187Z,19.39
2023-04-22T12:15:13.662Z,19.83
2023-04-22T12:20:15.677Z,19.79
2023-04-22T12:25:18.574Z,19.41
2023-04-22T12:30:21.741Z,18.85
2023-04-22T12:35:23.360Z,18.86
2023-04-22T12:40:25.098Z,18.84
2023-04-22T12:45:28.183Z,18.67
2023-04-22T12:50:30.073Z,18.67
2023-04-22T12:55:32.880Z,18.41
2023-04-22T13:00:35.888Z,17.92
2023-04-22T13:05:37.564Z,18.42
2023-04-22T13:10:39.237Z,18.46
2023-04-22T13:15:42.514Z,18.11
2023-04-22T13:20:44.320Z,18.10
2023-04-22T13:25:45.933Z,18.29
2023-04-22T13:30:48.998Z,17.72
2023-04-22T13:35:50.644Z,17.73
2023-04-22T13:40:52.278Z,17.51
2023-04-22T13:45:55.365Z,17.59
2023-04-22T13:50:57.124Z,17.69
2023-04-22T13:55:58.790Z,17.92
2023-04-22T14:01:01.770Z,17.52
2023-04-22T14:06:03.593Z,17.78
2023-04-22T14:11:06.845Z,17.48
2023-04-22T14:16:10.039Z,17.70
2023-04-22T14:21:12.498Z,17.57
2023-04-22T14:26:14.223Z,17.42
2023-04-22T14:31:17.322Z,17.27
2023-04-22T14:36:19.001Z,17.49
2023-04-22T14:41:20.746Z,17.53
2023-04-22T14:46:23.708Z,17.90
2023-04-22T14:51:25.378Z,17.57
2023-04-22T14:56:26.991Z,18.05
2023-04-22T15:01:33.862Z,18.04
2023-04-22T15:06:35.509Z,17.99
2023-04-22T15:11:37.161Z,17.82
2023-04-22T15:16:40.213Z,17.98
2023-04-22T15:21:41.847Z,17.82
2023-04-22T15:26:43.531Z,17.72
2023-04-22T15:31:47.152Z,17.78
2023-04-22T15:36:49.152Z,17.33
2023-04-22T15:41:50.913Z,17.62
2023-04-22T15:46:54.077Z,17.78
2023-04-22T15:51:55.700Z,17.82
2023-04-22T15:56:57.335Z,17.60
2023-04-22T16:02:00.723Z,17.51
2023-04-22T16:07:02.483Z,17.44
2023-04-22T16:12:04.283Z,17.12
2023-04-22T16:17:07.383Z,17.35
2023-04-22T16:22:09.017Z,17.21
2023-04-22T16:27:10.704Z,17.07
2023-04-22T16:32:13.790Z,17.09
2023-04-22T16:37:15.517Z,17.03
2023-04-22T16:42:17.205Z,16.95
2023-04-22T16:47:20.234Z,16.87
2023-04-22T16:52:21.847Z,16.41
2023-04-22T16:57:23.605Z,16.66
2023-04-22T17:02:26.807Z,16.58
2023-04-22T17:07:28.776Z,16.52
2023-04-22T17:12:30.389Z,16.91
2023-04-22T17:17:33.411Z,16.82
2023-04-22T17:22:35.056Z,16.84
2023-04-22T17:27:36.677Z,16.42
2023-04-22T17:32:39.687Z,16.38
2023-04-22T17:37:41.325Z,15.92
2023-04-22T17:42:46.304Z,15.93
2023-04-22T17:47:49.541Z,16.42
2023-04-22T17:52:51.444Z,15.77
2023-04-22T17:57:53.064Z,15.76
2023-04-22T18:02:56.438Z,15.85
2023-04-22T18:07:58.231Z,15.82
2023-04-22T18:12:59.875Z,15.60
2023-04-22T18:18:02.853Z,15.89
2023-04-22T18:23:04.523Z,15.74
2023-04-22T18:28:06.199Z,15.78
2023-04-22T18:33:09.416Z,15.52
2023-04-22T18:38:11.064Z,15.38
2023-04-22T18:43:12.729Z,15.37
2023-04-22T18:48:15.816Z,15.13
2023-04-22T18:53:17.420Z,15.13
2023-04-22T18:58:19.067Z,15.01
2023-04-22T19:03:22.249Z,15.10
2023-04-22T19:08:24.011Z,14.98
2023-04-22T19:13:29.642Z,14.94
2023-04-22T19:18:33.231Z,14.89
2023-04-22T19:23:38.077Z,14.88
2023-04-22T19:28:39.782Z,14.84
2023-04-22T19:33:42.990Z,14.86
2023-04-22T19:38:44.670Z,14.93
2023-04-22T19:43:46.455Z,14.90
2023-04-22T19:48:50.175Z,14.76
2023-04-22T19:53:54.219Z,14.75
2023-04-22T19:58:56.269Z,14.68
2023-04-22T20:04:00.348Z,14.72
2023-04-22T20:09:02.369Z,14.51
2023-04-22T20:14:04.853Z,14.43
2023-04-22T20:19:08.242Z,14.62
2023-04-22T20:24:12.868Z,14.63
2023-04-22T20:29:15.085Z,14.52
2023-04-22T20:34:18.624Z,14.57
2023-04-22T20:39:22.675Z,14.45
2023-04-22T20:44:24.436Z,14.56
2023-04-22T20:49:27.514Z,14.44
2023-04-22T20:54:29.556Z,14.47
2023-04-22T20:59:34.815Z,14.50
2023-04-22T21:04:38.254Z,14.33
2023-04-22T21:09:40.325Z,14.42
2023-04-22T21:14:43.722Z,14.34
2023-04-22T21:19:49.796Z,14.37
2023-04-22T21:24:52.597Z,14.42
2023-04-22T21:29:54.776Z,14.31
2023-04-22T21:34:57.819Z,14.34
2023-04-22T21:39:59.604Z,14.28
2023-04-22T21:45:01.269Z,14.25
2023-04-22T21:50:05.132Z,14.14
2023-04-22T21:55:07.198Z,14.15
2023-04-22T22:00:09.955Z,14.18
2023-04-22T22:05:13.785Z,14.06
2023-04-22T22:10:17.590Z,14.16
2023-04-22T22:15:19.321Z,14.14
2023-04-22T22:20:22.386Z,14.06
2023-04-22T22:25:24.324Z,13.88
2023-04-22T22:30:26.124Z,13.95
2023-04-22T22:35:29.478Z,13.77
2023-04-22T22:40:31.331Z,13.98
2023-04-22T22:45:33.399Z,13.98
2023-04-22T22:50:36.489Z,13.92
2023-04-22T22:55:38.188Z,13.88
2023-04-22T23:00:39.866Z,13.86
2023-04-22T23:05:43.208Z,13.92
2023-04-22T23:10:44.846Z,13.92
2023-04-22T23:15:46.517Z,13.87
2023-04-22T23:20:50.878Z,13.83
2023-04-22T23:25:53.090Z,13.84
2023-04-22T23:30:55.717Z,13.81
2023-04-22T23:36:00.699Z,13.86
2023-04-22T23:41:02.350Z,13.77
2023-04-22T23:46:04.331Z,13.79
2023-04-22T23:51:07.579Z,13.78
2023-04-22T23:56:10.449Z,13.70
